createdAt,value
2022-11-28T00:02:44.733Z,56.15
2022-11-28T00:07:47.042Z,57.85
2022-11-28T00:12:50.529Z,52.00
2022-11-28T00:17:53.042Z,53.33
2022-11-28T00:22:55.166Z,54.35
2022-11-28T00:27:58.917Z,50.03
2022-11-28T00:33:00.969Z,48.67
2022-11-28T00:38:03.079Z,44.92
2022-11-28T00:43:06.559Z,46.55
2022-11-28T00:48:08.649Z,46.60
2022-11-28T00:53:10.944Z,45.92
2022-11-28T00:58:14.385Z,41.17
2022-11-28T01:03:16.493Z,42.63
2022-11-28T01:08:18.595Z,43.42
2022-11-28T01:13:22.227Z,42.15
2022-11-28T01:18:24.297Z,38.28
2022-11-28T01:23:26.399Z,35.22
2022-11-28T01:28:30.305Z,37.58
2022-11-28T01:33:32.443Z,31.50
2022-11-28T01:38:36.005Z,33.20
2022-11-28T01:43:57.764Z,34.17
2022-11-28T01:49:04.896Z,38.22
2022-11-28T01:54:07.370Z,37.50
2022-11-28T01:59:12.743Z,37.22
2022-11-28T02:04:15.014Z,41.95
2022-11-28T02:09:18.160Z,44.17
2022-11-28T02:14:38.317Z,41.83
2022-11-28T02:20:28.268Z,43.35
2022-11-28T02:26:03.248Z,38.25
2022-11-28T02:31:24.627Z,38.90
2022-11-28T02:36:32.751Z,41.78
2022-11-28T02:41:42.860Z,37.45
2022-11-28T02:46:53.001Z,38.63
2022-11-28T02:51:59.277Z,40.30
2022-11-28T02:57:03.037Z,35.05
2022-11-28T03:02:06.489Z,36.38
2022-11-28T03:07:20.192Z,35.55
2022-11-28T03:12:29.811Z,34.90
2022-11-28T03:17:42.274Z,36.05
2022-11-28T03:22:59.922Z,35.88
2022-11-28T03:28:08.219Z,33.53
2022-11-28T03:33:10.933Z,34.13
2022-11-28T03:38:19.759Z,35.35
2022-11-28T03:43:25.791Z,32.95
2022-11-28T03:48:32.926Z,33.90
2022-11-28T03:53:43.165Z,33.55
2022-11-28T03:58:53.749Z,33.53
2022-11-28T04:04:03.658Z,33.85
2022-11-28T04:09:14.361Z,30.92
2022-11-28T04:14:23.282Z,29.27
2022-11-28T04:19:31.847Z,29.75
2022-11-28T04:24:40.706Z,29.98
2022-11-28T04:29:47.098Z,31.05
2022-11-28T04:34:54.797Z,32.53
2022-11-28T04:39:58.665Z,30.00
2022-11-28T04:45:05.135Z,27.45
2022-11-28T04:50:08.520Z,25.92
2022-11-28T04:55:20.066Z,30.60
2022-11-28T05:00:23.026Z,28.08
2022-11-28T05:05:28.500Z,27.50
2022-11-28T05:10:31.984Z,26.38
2022-11-28T05:15:34.347Z,26.52
2022-11-28T05:20:37.761Z,25.40
2022-11-28T05:25:41.258Z,27.10
2022-11-28T05:30:43.354Z,23.27
2022-11-28T05:35:45.399Z,24.85
2022-11-28T05:40:49.081Z,23.08
2022-11-28T05:45:51.225Z,22.27
2022-11-28T05:50:53.503Z,20.20
2022-11-28T05:55:56.995Z,19.52
2022-11-28T06:00:59.322Z,22.23
2022-11-28T06:06:01.666Z,21.38
2022-11-28T06:11:05.127Z,21.88
2022-11-28T06:16:10.090Z,24.35
2022-11-28T06:21:13.755Z,25.75
2022-11-28T06:26:19.664Z,24.27
2022-11-28T06:31:23.491Z,25.80
2022-11-28T06:36:26.279Z,25.77
2022-11-28T06:41:30.098Z,25.17
2022-11-28T06:46:32.251Z,23.02
2022-11-28T06:51:34.406Z,23.85
2022-11-28T06:56:38.296Z,23.70
2022-11-28T07:01:40.547Z,26.92
2022-11-28T07:06:44.749Z,25.48
2022-11-28T07:11:48.280Z,23.23
2022-11-28T07:16:50.489Z,23.95
2022-11-28T07:21:52.758Z,26.33
2022-11-28T07:26:56.574Z,26.85
2022-11-28T07:31:58.798Z,25.63
2022-11-28T07:37:01.048Z,24.45
2022-11-28T07:42:06.513Z,25.55
2022-11-28T07:47:08.646Z,26.58
2022-11-28T07:52:10.753Z,25.83
2022-11-28T07:57:14.323Z,25.10
2022-11-28T08:02:16.493Z,25.98
2022-11-28T08:07:19.724Z,24.63
2022-11-28T08:12:23.273Z,23.05
2022-11-28T08:17:25.342Z,24.13
2022-11-28T08:22:27.732Z,28.15
2022-11-28T08:32:57.023Z,23.00
2022-11-28T08:38:02.034Z,24.13
2022-11-28T08:43:14.687Z,23.67
2022-11-28T08:48:16.754Z,21.23
2022-11-28T08:53:18.860Z,21.23
2022-11-28T08:58:22.305Z,20.05
2022-11-28T09:03:24.904Z,20.58
2022-11-28T09:08:27.011Z,20.30
2022-11-28T09:13:30.489Z,19.50
2022-11-28T09:18:44.089Z,23.80
2022-11-28T09:23:46.771Z,19.90
2022-11-28T09:28:50.273Z,19.35
2022-11-28T09:33:52.403Z,18.58
2022-11-28T09:38:54.522Z,21.40
2022-11-28T09:44:03.219Z,19.25
2022-11-28T09:49:16.956Z,21.65
2022-11-28T09:54:22.395Z,19.83
2022-11-28T09:59:29.013Z,19.50
2022-11-28T10:04:41.963Z,15.43
2022-11-28T10:09:46.095Z,19.40
2022-11-28T10:25:36.367Z,18.60
2022-11-28T10:30:43.005Z,19.70
2022-11-28T10:51:39.550Z,14.45
2022-11-28T10:56:47.751Z,16.85
2022-11-28T11:01:51.842Z,15.80
2022-11-28T11:07:16.208Z,17.02
2022-11-28T11:12:24.779Z,16.65
2022-11-28T11:17:36.325Z,16.45
2022-11-28T11:22:40.154Z,18.20
2022-11-28T11:27:50.087Z,18.77
2022-11-28T11:32:53.035Z,17.75
2022-11-28T11:38:17.568Z,23.10
2022-11-28T11:43:30.547Z,20.02
2022-11-28T11:48:37.527Z,20.42
2022-11-28T11:53:40.953Z,20.10
2022-11-28T11:58:47.018Z,20.20
2022-11-28T12:03:56.334Z,22.88
2022-11-28T12:09:09.634Z,23.75
2022-11-28T12:14:27.617Z,22.67
2022-11-28T12:19:36.699Z,24.75
2022-11-28T12:24:53.755Z,23.45
2022-11-28T12:30:11.756Z,23.95
2022-11-28T12:35:25.828Z,24.58
2022-11-28T12:40:37.156Z,26.55
2022-11-28T12:45:45.559Z,23.70
2022-11-28T12:50:53.678Z,25.23
2022-11-28T12:56:06.082Z,25.08
2022-11-28T13:01:22.173Z,26.80
2022-11-28T13:06:36.333Z,24.48
2022-11-28T13:11:56.305Z,24.73
2022-11-28T13:17:17.253Z,24.92
2022-11-28T13:22:24.714Z,25.15
2022-11-28T13:27:36.477Z,26.55
2022-11-28T13:32:46.795Z,27.80
2022-11-28T13:43:30.478Z,26.77
2022-11-28T13:49:20.604Z,24.38
2022-11-28T13:54:45.498Z,23.70
2022-11-28T13:59:59.739Z,24.75
2022-11-28T14:05:02.441Z,25.70
2022-11-28T14:10:38.668Z,23.90
2022-11-28T14:15:53.695Z,27.55
2022-11-28T14:21:00.134Z,27.23
2022-11-28T14:26:02.397Z,27.65
2022-11-28T14:31:18.244Z,25.60
2022-11-28T14:36:26.073Z,29.98
2022-11-28T14:41:28.250Z,28.35
2022-11-28T14:46:33.152Z,28.83
2022-11-28T14:57:36.783Z,28.17
2022-11-28T15:03:06.720Z,29.33
2022-11-28T15:08:46.539Z,31.00
2022-11-28T15:14:09.012Z,29.58
2022-11-28T15:19:17.970Z,30.42
2022-11-28T15:24:29.740Z,30.63
2022-11-28T15:29:31.800Z,31.63
2022-11-28T15:34:37.204Z,30.27
2022-11-28T15:39:41.686Z,28.67
2022-11-28T15:44:44.916Z,30.52
2022-11-28T15:50:00.058Z,30.50
2022-11-28T15:55:03.054Z,32.38
2022-11-28T16:00:06.132Z,31.58
2022-11-28T16:05:12.654Z,33.60
2022-11-28T16:10:25.167Z,35.08
2022-11-28T16:15:28.890Z,34.65
2022-11-28T16:20:37.912Z,37.53
2022-11-28T16:25:40.177Z,37.67
2022-11-28T16:30:47.562Z,37.25
2022-11-28T16:35:51.268Z,34.72
2022-11-28T16:41:01.124Z,38.60
2022-11-28T16:46:06.529Z,40.05
2022-11-28T16:51:35.559Z,36.13
2022-11-28T16:56:45.342Z,38.90
2022-11-28T17:01:49.482Z,37.60
2022-11-28T17:06:54.723Z,37.58
2022-11-28T17:12:03.536Z,36.03
2022-11-28T17:17:14.197Z,32.80
2022-11-28T17:22:25.033Z,32.60
2022-11-28T17:27:28.831Z,33.50
2022-11-28T17:32:33.536Z,31.00
2022-11-28T17:37:38.847Z,31.65
2022-11-28T17:42:41.688Z,33.50
2022-11-28T17:47:44.481Z,32.22
2022-11-28T17:52:49.741Z,35.95
2022-11-28T17:57:52.823Z,33.20
2022-11-28T18:02:56.672Z,34.50
2022-11-28T18:08:01.375Z,32.15
2022-11-28T18:13:07.534Z,32.80
2022-11-28T18:18:19.019Z,30.17
2022-11-28T18:23:24.862Z,28.60
2022-11-28T18:28:27.730Z,31.73
2022-11-28T18:33:30.334Z,30.70
2022-11-28T18:38:36.823Z,31.42
2022-11-28T18:43:40.682Z,32.47
2022-11-28T18:48:49.016Z,30.70
2022-11-28T18:53:54.776Z,32.28
2022-11-28T18:58:59.590Z,32.70
2022-11-28T19:04:05.740Z,28.75
2022-11-28T19:09:14.041Z,32.10
2022-11-28T19:14:18.926Z,31.20
2022-11-28T19:19:24.114Z,32.50
2022-11-28T19:24:29.823Z,33.10
2022-11-28T19:29:33.579Z,35.55
2022-11-28T19:34:37.879Z,34.60
2022-11-28T19:39:43.410Z,33.15
2022-11-28T19:44:47.778Z,33.33
2022-11-28T19:49:51.129Z,34.30
2022-11-28T19:54:56.721Z,36.17
2022-11-28T20:00:00.253Z,39.60
2022-11-28T20:05:04.409Z,38.13
2022-11-28T20:10:10.839Z,39.65
2022-11-28T20:15:18.384Z,40.38
2022-11-28T20:20:25.751Z,40.53
2022-11-28T20:25:30.967Z,41.45
2022-11-28T20:30:34.325Z,42.33
2022-11-28T20:35:37.739Z,45.55
2022-11-28T20:40:46.882Z,44.10
2022-11-28T20:45:51.054Z,42.90
2022-11-28T20:50:54.309Z,48.88
2022-11-28T20:56:03.598Z,44.15
2022-11-28T21:01:07.391Z,42.60
2022-11-28T21:06:11.170Z,44.63
2022-11-28T21:11:36.475Z,44.83
2022-11-28T21:16:39.738Z,46.35
2022-11-28T21:21:43.335Z,44.13
2022-11-28T21:26:52.951Z,47.28
2022-11-28T21:31:56.214Z,43.75
2022-11-28T21:36:58.394Z,44.22
2022-11-28T21:42:02.792Z,45.17
2022-11-28T21:47:05.756Z,46.10
2022-11-28T21:52:09.486Z,43.47
2022-11-28T21:57:12.956Z,45.58
2022-11-28T22:02:16.036Z,47.63
2022-11-28T22:07:18.298Z,48.05
2022-11-28T22:12:21.789Z,44.45
2022-11-28T22:17:23.964Z,39.95
2022-11-28T22:22:27.625Z,41.53
2022-11-28T22:27:35.515Z,42.75
2022-11-28T22:32:37.675Z,44.67
2022-11-28T22:37:40.200Z,42.15
2022-11-28T22:42:43.876Z,43.15
2022-11-28T22:47:45.996Z,42.83
2022-11-28T22:52:48.107Z,43.83
2022-11-28T22:57:51.552Z,42.88
2022-11-28T23:02:53.680Z,40.75
2022-11-28T23:07:55.931Z,40.30
2022-11-28T23:12:59.455Z,44.25
2022-11-28T23:18:01.570Z,41.83
2022-11-28T23:23:03.695Z,42.90
2022-11-28T23:28:07.376Z,40.92
2022-11-28T23:33:09.473Z,42.40
2022-11-28T23:38:11.572Z,44.15
2022-11-28T23:43:15.029Z,43.70
2022-11-28T23:48:17.269Z,41.78
2022-11-28T23:53:19.376Z,44.00
2022-11-28T23:58:22.832Z,43.08
